Time;durP1;ratioP1;P1;durP2;ratioP2;P2;SDS_P1;SDS_P2;PMS_P1;PMS_P2;Temp;Humidity;BMP_temperature;BMP_pressure;BME280_temperature;BME280_humidity;BME280_pressure;Samples;Min_cycle;Max_cycle;Signal;HPM_P1;HPM_P2
2020/12/30 00:00:31;;;;;;;;;;;;;;;23.00;33.51;99691.47;3097241;28;115134;-60
2020/12/30 00:02:03;;;;;;;;;;;;;;;22.99;33.31;99696.28;3095375;28;114695;-59
2020/12/30 00:03:34;;;;;;;;;;;;;;;23.00;33.50;99699.91;3094499;28;114810;-59
2020/12/30 00:05:07;;;;;;;;;;;;;;;22.97;33.50;99701.47;3094389;28;114868;-60
2020/12/30 00:06:38;;;;;;;;;;;;;;;22.97;33.33;99703.47;3091889;28;115808;-60
2020/12/30 00:08:10;;;;;;;;;;;;;;;22.95;33.41;99706.63;3088270;28;116141;-60
2020/12/30 00:09:42;;;;;;;;;;;;;;;22.93;33.31;99706.19;3096819;28;115734;-60
2020/12/30 00:11:15;;;;;;;;;;;;;;;22.92;33.31;99698.06;3088552;28;114835;-60
2020/12/30 00:12:51;;;;;;;;;;;;;;;22.91;33.64;99705.69;3091695;28;115485;-60
2020/12/30 00:14:28;;;;;;;;;;;;;;;22.89;33.54;99702.44;3088215;28;114850;-60
2020/12/30 00:16:18;;;;;;;;;;;;;;;22.88;33.47;99711.22;3089557;28;115100;-61
2020/12/30 00:17:49;;;;;;;;;;;;;;;22.85;33.78;99706.31;3096233;28;114885;-59
2020/12/30 00:19:20;;;;;;;;;;;;;;;22.36;29.43;99706.28;3095723;28;115964;-62
2020/12/30 00:20:52;;;;;;;;;;;;;;;21.75;28.39;99705.34;3092527;28;114546;-59
2020/12/30 00:22:23;;;;;;;;;;;;;;;21.74;29.78;99712.13;3093149;28;114068;-59
2020/12/30 00:23:55;;;;;;;;;;;;;;;21.88;30.96;99714.63;3093114;28;114204;-58
2020/12/30 00:25:27;;;;;;;;;;;;;;;21.96;31.16;99708.94;3096773;28;114455;-60
2020/12/30 00:27:01;;;;;;;;;;;;;;;22.01;31.42;99719.13;3094996;28;114127;-59
2020/12/30 00:28:34;;;;;;;;;;;;;;;22.05;31.66;99714.44;3093644;28;114284;-60
2020/12/30 00:30:15;;;;;;;;;;;;;;;22.07;31.58;99715.75;3093956;28;114238;-59
2020/12/30 00:31:47;;;;;;;;;;;;;;;22.13;32.25;99719.16;3094336;28;114413;-59
2020/12/30 00:33:18;;;;;;;;;;;;;;;21.76;29.50;99720.22;3090391;28;114575;-58
2020/12/30 00:34:49;;;;;;;;;;;;;;;21.57;31.37;99715.13;3084480;28;114204;-60
2020/12/30 00:36:22;;;;;;;;;;;;;;;21.67;30.94;99711.84;3097300;28;118325;-58
2020/12/30 00:37:53;;;;;;;;;;;;;;;21.73;31.30;99716.91;3093824;28;114142;-58
2020/12/30 00:39:25;;;;;;;;;;;;;;;21.78;31.44;99712.25;3088816;28;114266;-59
2020/12/30 00:40:57;;;;;;;;;;;;;;;21.79;31.24;99711.09;3094890;28;114792;-60
2020/12/30 00:42:31;;;;;;;;;;;;;;;21.83;31.69;99709.22;3099815;28;114013;-60
2020/12/30 00:44:11;;;;;;;;;;;;;;;21.82;31.89;99714.00;3094136;28;113961;-60
2020/12/30 00:45:54;;;;;;;;;;;;;;;21.84;31.99;99717.31;3092852;28;115221;-59
2020/12/30 00:47:28;;;;;;;;;;;;;;;21.84;31.97;99708.88;3094389;28;115264;-60
2020/12/30 00:49:02;;;;;;;;;;;;;;;21.84;31.99;99716.50;3096161;28;114585;-60
2020/12/30 00:50:34;;;;;;;;;;;;;;;21.84;32.34;99713.69;3094502;28;114159;-60
2020/12/30 00:52:05;;;;;;;;;;;;;;;21.84;32.36;99711.69;3093333;28;114763;-60
2020/12/30 00:53:36;;;;;;;;;;;;;;;21.83;32.53;99704.41;3095394;28;115481;-60
2020/12/30 00:55:11;;;;;;;;;;;;;;;21.83;32.61;99706.41;3094688;28;115129;-59
2020/12/30 00:56:47;;;;;;;;;;;;;;;21.81;32.92;99703.09;3095277;28;115639;-59
2020/12/30 00:58:20;;;;;;;;;;;;;;;21.81;33.09;99705.91;3094279;28;114725;-59
2020/12/30 00:59:53;;;;;;;;;;;;;;;21.81;33.30;99705.91;3093855;28;114369;-60
2020/12/30 01:01:25;;;;;;;;;;;;;;;21.78;33.45;99698.19;3106386;28;115482;-59
2020/12/30 01:02:56;;;;;;;;;;;;;;;21.78;33.13;99701.81;3098674;28;115266;-60
2020/12/30 01:04:28;;;;;;;;;;;;;;;21.76;33.57;99698.53;3096841;28;116157;-59
2020/12/30 01:06:03;;;;;;;;;;;;;;;21.74;33.59;99698.88;3094048;28;114708;-61
2020/12/30 01:07:34;;;;;;;;;;;;;;;21.73;33.51;99699.22;3095742;28;114613;-63
2020/12/30 01:09:06;;;;;;;;;;;;;;;21.72;33.77;99692.78;3095927;28;114639;-60
2020/12/30 01:10:37;;;;;;;;;;;;;;;21.70;33.66;99700.75;3096011;28;115198;-60
2020/12/30 01:12:08;;;;;;;;;;;;;;;21.69;33.83;99703.91;3097351;28;116417;-60
2020/12/30 01:13:40;;;;;;;;;;;;;;;21.67;33.74;99707.06;3093641;28;116870;-63
2020/12/30 01:15:12;;;;;;;;;;;;;;;21.65;33.88;99706.59;3083229;28;115401;-60
2020/12/30 01:16:50;;;;;;;;;;;;;;;21.64;33.98;99707.75;3092693;28;114834;-60
2020/12/30 01:18:21;;;;;;;;;;;;;;;21.62;34.33;99710.06;3095431;28;115964;-61
2020/12/30 01:19:53;;;;;;;;;;;;;;;21.61;34.42;99725.31;3101269;27;115104;-60
2020/12/30 01:21:24;;;;;;;;;;;;;;;21.59;34.48;99727.66;3088153;28;115103;-59
2020/12/30 01:22:56;;;;;;;;;;;;;;;21.58;34.24;99717.56;3095075;28;115723;-58
2020/12/30 01:24:28;;;;;;;;;;;;;;;21.54;34.68;99724.22;3090653;28;116344;-58
2020/12/30 01:25:59;;;;;;;;;;;;;;;21.52;34.66;99726.56;3098862;28;116017;-59
2020/12/30 01:27:32;;;;;;;;;;;;;;;21.50;34.34;99735.34;3095248;28;114266;-60
2020/12/30 01:29:06;;;;;;;;;;;;;;;21.48;34.77;99729.25;3094309;28;114729;-60
2020/12/30 01:30:39;;;;;;;;;;;;;;;21.47;34.93;99741.66;3092037;28;114769;-61
2020/12/30 01:32:11;;;;;;;;;;;;;;;21.44;34.75;99742.31;3092936;28;114651;-61
2020/12/30 01:33:43;;;;;;;;;;;;;;;21.41;34.91;99743.03;3092492;28;113987;-61
2020/12/30 01:35:15;;;;;;;;;;;;;;;21.40;35.13;99746.16;3091859;28;113903;-61
2020/12/30 01:36:53;;;;;;;;;;;;;;;21.37;35.32;99742.06;3093117;28;114124;-61
2020/12/30 01:38:25;;;;;;;;;;;;;;;21.34;35.23;99751.19;3093164;28;113986;-61
2020/12/30 01:39:56;;;;;;;;;;;;;;;21.33;35.20;99754.34;3092418;28;114308;-61
2020/12/30 01:41:29;;;;;;;;;;;;;;;21.29;35.15;99752.22;3094501;28;113925;-61
2020/12/30 01:43:00;;;;;;;;;;;;;;;21.27;35.26;99748.09;3095933;28;114205;-61
2020/12/30 01:44:31;;;;;;;;;;;;;;;21.24;35.29;99755.22;3095259;28;114300;-61
2020/12/30 01:46:03;;;;;;;;;;;;;;;21.22;35.92;99754.72;3095036;28;114161;-62
2020/12/30 01:47:35;;;;;;;;;;;;;;;21.19;35.95;99761.06;3097298;28;114757;-61
2020/12/30 01:49:08;;;;;;;;;;;;;;;21.18;36.16;99762.22;3092524;28;114017;-61
2020/12/30 01:50:39;;;;;;;;;;;;;;;21.17;36.02;99768.16;3092161;28;116170;-62
2020/12/30 01:52:10;;;;;;;;;;;;;;;21.14;36.00;99763.22;3092916;28;114686;-61
2020/12/30 01:53:42;;;;;;;;;;;;;;;21.14;36.34;99760.41;3079620;28;114717;-62
2020/12/30 01:55:17;;;;;;;;;;;;;;;21.12;36.21;99757.13;3088988;28;114604;-62
2020/12/30 01:56:51;;;;;;;;;;;;;;;21.09;36.38;99760.59;3093532;28;115845;-62
2020/12/30 01:58:23;;;;;;;;;;;;;;;21.06;36.57;99753.69;3095786;28;114085;-61
2020/12/30 01:59:54;;;;;;;;;;;;;;;21.03;36.57;99759.97;3095516;28;114205;-61
2020/12/30 02:01:28;;;;;;;;;;;;;;;21.03;36.90;99765.56;3095095;28;114188;-61
2020/12/30 02:03:01;;;;;;;;;;;;;;;20.99;36.73;99767.41;3095657;28;116327;-60
2020/12/30 02:04:44;;;;;;;;;;;;;;;20.98;37.10;99762.16;3086212;28;115050;-60
2020/12/30 02:06:15;;;;;;;;;;;;;;;20.97;36.85;99763.31;3083528;28;114270;-60
2020/12/30 02:07:46;;;;;;;;;;;;;;;20.94;36.82;99769.63;3092465;28;115402;-59
2020/12/30 02:09:19;;;;;;;;;;;;;;;20.91;36.93;99770.28;3096146;28;115207;-60
2020/12/30 02:10:50;;;;;;;;;;;;;;;20.90;36.70;99774.25;3095482;28;116530;-59
2020/12/30 02:12:21;;;;;;;;;;;;;;;20.87;36.65;99772.97;3089952;28;115303;-59
2020/12/30 02:14:00;;;;;;;;;;;;;;;20.86;36.87;99768.50;3092825;28;115948;-60
2020/12/30 02:15:32;;;;;;;;;;;;;;;20.84;36.97;99768.03;3091863;28;115748;-60
2020/12/30 02:17:04;;;;;;;;;;;;;;;20.82;36.78;99765.56;3090641;28;115064;-58
2020/12/30 02:18:35;;;;;;;;;;;;;;;20.80;36.81;99767.06;3095477;28;116998;-58
2020/12/30 02:20:06;;;;;;;;;;;;;;;20.79;37.12;99769.06;3095716;28;114399;-58
2020/12/30 02:21:38;;;;;;;;;;;;;;;20.77;37.00;99768.56;3096672;28;115856;-58
2020/12/30 02:23:09;;;;;;;;;;;;;;;20.76;37.20;99780.94;3095048;28;115388;-58
2020/12/30 02:24:42;;;;;;;;;;;;;;;20.74;37.14;99776.84;3087019;28;115793;-58
2020/12/30 02:26:19;;;;;;;;;;;;;;;20.73;37.01;99778.81;3098957;28;115159;-58
2020/12/30 02:28:16;;;;;;;;;;;;;;;20.71;37.38;99783.97;3086792;28;114617;-58
2020/12/30 02:30:03;;;;;;;;;;;;;;;20.71;38.00;99780.31;3090858;28;120713;-58
2020/12/30 02:31:34;;;;;;;;;;;;;;;20.68;37.96;99784.63;3096801;28;117364;-59
2020/12/30 02:33:09;;;;;;;;;;;;;;;20.67;37.93;99785.78;3093157;28;117638;-59
2020/12/30 02:34:41;;;;;;;;;;;;;;;20.65;38.14;99787.28;3093841;28;115209;-59
2020/12/30 02:36:14;;;;;;;;;;;;;;;20.64;37.88;99789.25;3091887;28;114141;-59
2020/12/30 02:37:45;;;;;;;;;;;;;;;20.61;37.89;99787.13;3086893;28;114086;-59
2020/12/30 02:39:17;;;;;;;;;;;;;;;20.60;37.82;99799.53;3093986;28;114237;-59
2020/12/30 02:40:48;;;;;;;;;;;;;;;20.58;37.52;99796.22;3096366;28;114549;-58
2020/12/30 02:42:20;;;;;;;;;;;;;;;20.57;37.63;99793.75;3096885;28;113970;-59
2020/12/30 02:43:51;;;;;;;;;;;;;;;20.55;37.41;99799.69;3095626;28;114216;-59
2020/12/30 02:45:22;;;;;;;;;;;;;;;20.51;37.53;99801.53;3084914;28;113903;-59
2020/12/30 02:46:53;;;;;;;;;;;;;;;20.51;37.76;99795.09;3092916;28;114220;-58
2020/12/30 02:48:24;;;;;;;;;;;;;;;20.48;37.74;99802.22;3093153;28;114357;-59
2020/12/30 02:49:56;;;;;;;;;;;;;;;20.46;37.63;99796.09;3094655;28;114252;-59
2020/12/30 02:51:27;;;;;;;;;;;;;;;20.45;37.54;99790.81;3098155;28;113788;-60
2020/12/30 02:52:59;;;;;;;;;;;;;;;20.42;37.30;99790.34;3096141;28;114481;-59
2020/12/30 02:54:30;;;;;;;;;;;;;;;20.42;37.84;99797.94;3094044;28;114136;-59
2020/12/30 02:56:01;;;;;;;;;;;;;;;20.41;37.53;99801.91;3097000;28;114160;-59
2020/12/30 02:57:32;;;;;;;;;;;;;;;20.39;37.42;99798.63;3089160;28;114860;-60
2020/12/30 02:59:04;;;;;;;;;;;;;;;20.37;37.65;99803.72;3096698;28;114138;-60
2020/12/30 03:00:35;;;;;;;;;;;;;;;20.35;37.45;99797.66;3095590;28;114356;-59
2020/12/30 03:02:06;;;;;;;;;;;;;;;20.34;37.43;99798.81;3097468;28;115612;-60
2020/12/30 03:03:38;;;;;;;;;;;;;;;20.32;37.46;99799.13;3096153;28;115200;-59
2020/12/30 03:05:09;;;;;;;;;;;;;;;20.30;37.61;99804.25;3092085;28;115124;-59
2020/12/30 03:06:40;;;;;;;;;;;;;;;20.28;37.68;99803.72;3087688;28;115194;-59
2020/12/30 03:08:12;;;;;;;;;;;;;;;20.26;37.64;99810.84;3091941;28;115441;-60
2020/12/30 03:09:43;;;;;;;;;;;;;;;20.24;37.46;99799.94;3097656;28;115328;-60
2020/12/30 03:11:14;;;;;;;;;;;;;;;20.23;37.75;99819.91;3098881;28;115601;-58
2020/12/30 03:12:46;;;;;;;;;;;;;;;20.23;37.51;99819.91;3097347;28;115046;-59
2020/12/30 03:14:18;;;;;;;;;;;;;;;20.21;37.62;99819.44;3096842;28;114165;-58
2020/12/30 03:15:49;;;;;;;;;;;;;;;20.21;37.79;99816.63;3094685;28;115049;-58
2020/12/30 03:17:21;;;;;;;;;;;;;;;20.18;37.87;99812.50;3096434;28;114600;-58
2020/12/30 03:18:52;;;;;;;;;;;;;;;20.17;37.79;99815.66;3097000;28;116790;-58
2020/12/30 03:20:23;;;;;;;;;;;;;;;20.16;37.95;99819.63;3091734;28;115970;-59
2020/12/30 03:21:56;;;;;;;;;;;;;;;20.13;37.93;99818.28;3096991;28;115667;-59
2020/12/30 03:23:27;;;;;;;;;;;;;;;20.12;37.92;99813.03;3096304;28;115330;-59
2020/12/30 03:24:58;;;;;;;;;;;;;;;20.10;38.01;99810.53;3097318;28;116034;-58
2020/12/30 03:26:32;;;;;;;;;;;;;;;20.08;38.18;99807.22;3088901;28;116942;-59
2020/12/30 03:28:09;;;;;;;;;;;;;;;20.06;37.97;99806.75;3092209;28;114856;-60
2020/12/30 03:29:41;;;;;;;;;;;;;;;20.04;38.21;99808.22;3085470;28;115691;-59
2020/12/30 03:31:12;;;;;;;;;;;;;;;20.03;38.07;99804.63;3110887;28;115923;-58
2020/12/30 03:32:43;;;;;;;;;;;;;;;20.01;38.03;99806.09;3095900;28;115340;-59
2020/12/30 03:34:15;;;;;;;;;;;;;;;20.01;38.09;99812.53;3093919;28;117763;-58
2020/12/30 03:35:47;;;;;;;;;;;;;;;19.99;37.90;99815.66;3083931;28;114616;-59
2020/12/30 03:37:18;;;;;;;;;;;;;;;19.97;37.88;99812.38;3099129;28;114827;-60
2020/12/30 03:38:50;;;;;;;;;;;;;;;19.95;38.23;99819.47;3088350;28;114818;-60
2020/12/30 03:40:21;;;;;;;;;;;;;;;19.93;38.18;99817.00;3092027;28;114415;-59
2020/12/30 03:41:53;;;;;;;;;;;;;;;19.91;38.34;99819.31;3090754;28;113968;-59
2020/12/30 03:43:24;;;;;;;;;;;;;;;19.89;38.27;99818.84;3090646;28;114293;-59
2020/12/30 03:44:55;;;;;;;;;;;;;;;19.88;38.41;99822.78;3091997;28;114444;-59
2020/12/30 03:46:27;;;;;;;;;;;;;;;19.86;38.39;99818.66;3087885;28;114536;-59
2020/12/30 03:47:58;;;;;;;;;;;;;;;19.84;38.53;99818.19;3087173;28;113980;-59
2020/12/30 03:49:29;;;;;;;;;;;;;;;19.84;38.39;99815.38;3093979;28;114827;-59
2020/12/30 03:51:01;;;;;;;;;;;;;;;19.82;38.72;99814.88;3094655;28;114301;-59
2020/12/30 03:52:32;;;;;;;;;;;;;;;19.80;38.57;99818.03;3089958;28;114409;-59
2020/12/30 03:54:03;;;;;;;;;;;;;;;19.77;38.57;99824.28;3091783;28;114340;-60
2020/12/30 03:55:35;;;;;;;;;;;;;;;19.77;38.75;99823.44;3096505;28;114109;-59
2020/12/30 03:57:06;;;;;;;;;;;;;;;19.75;38.53;99822.97;3098675;28;114151;-58
2020/12/30 03:58:38;;;;;;;;;;;;;;;19.75;38.68;99831.38;3109617;28;113840;-58
2020/12/30 04:00:28;;;;;;;;;;;;;;;19.72;38.64;99821.63;3095335;28;114536;-58
2020/12/30 04:01:59;;;;;;;;;;;;;;;19.71;38.69;99830.38;3097137;28;114447;-58
2020/12/30 04:03:30;;;;;;;;;;;;;;;19.70;38.85;99831.53;3107540;28;114362;-61
2020/12/30 04:05:02;;;;;;;;;;;;;;;19.67;38.84;99829.41;3098267;28;115329;-60
2020/12/30 04:06:33;;;;;;;;;;;;;;;19.66;38.85;99836.16;3096585;28;114687;-60
2020/12/30 04:08:04;;;;;;;;;;;;;;;19.65;38.72;99834.50;3087580;28;113945;-61
2020/12/30 04:09:35;;;;;;;;;;;;;;;19.62;38.72;99836.00;3096834;28;117336;-61
2020/12/30 04:11:07;;;;;;;;;;;;;;;19.61;38.74;99836.31;3105487;28;116150;-61
2020/12/30 04:12:38;;;;;;;;;;;;;;;19.59;38.75;99839.44;3100415;28;114474;-58
2020/12/30 04:14:09;;;;;;;;;;;;;;;19.57;38.67;99835.34;3099808;28;115906;-59
2020/12/30 04:15:43;;;;;;;;;;;;;;;19.56;38.69;99831.69;3106071;27;114451;-59
2020/12/30 04:17:15;;;;;;;;;;;;;;;19.54;38.65;99834.00;3090703;28;115383;-60
2020/12/30 04:18:46;;;;;;;;;;;;;;;19.54;38.80;99837.63;3095704;28;114408;-60
2020/12/30 04:20:18;;;;;;;;;;;;;;;19.52;38.72;99839.13;3093611;28;114394;-60
2020/12/30 04:21:49;;;;;;;;;;;;;;;19.51;38.56;99846.69;3093377;28;114261;-60
2020/12/30 04:23:20;;;;;;;;;;;;;;;19.50;38.44;99841.41;3084562;28;115281;-61
2020/12/30 04:24:51;;;;;;;;;;;;;;;19.48;38.72;99838.97;3096106;28;115018;-61
2020/12/30 04:26:23;;;;;;;;;;;;;;;19.46;38.51;99834.81;3094039;28;115033;-59
2020/12/30 04:27:54;;;;;;;;;;;;;;;19.45;38.52;99835.97;3093475;28;119299;-59
2020/12/30 04:29:25;;;;;;;;;;;;;;;19.45;38.67;99833.16;3096552;28;115219;-60
2020/12/30 04:30:57;;;;;;;;;;;;;;;19.42;38.53;99834.63;3098172;28;115683;-60
2020/12/30 04:32:28;;;;;;;;;;;;;;;19.41;38.56;99840.53;3096284;28;115628;-59
2020/12/30 04:33:59;;;;;;;;;;;;;;;19.39;38.51;99835.28;3095136;28;114583;-60
2020/12/30 04:35:31;;;;;;;;;;;;;;;19.38;38.70;99841.22;3096189;28;116062;-59
2020/12/30 04:37:02;;;;;;;;;;;;;;;19.37;38.54;99842.34;3094158;28;115755;-59
2020/12/30 04:38:35;;;;;;;;;;;;;;;19.36;38.51;99841.53;3092476;28;115745;-60
2020/12/30 04:40:06;;;;;;;;;;;;;;;19.34;38.79;99843.03;3093564;28;116522;-59
2020/12/30 04:41:38;;;;;;;;;;;;;;;19.33;38.69;99844.16;3094253;28;116062;-59
2020/12/30 04:43:11;;;;;;;;;;;;;;;19.30;38.82;99840.06;3103394;28;116028;-60
2020/12/30 04:44:48;;;;;;;;;;;;;;;19.30;38.61;99842.03;3084242;28;114619;-60
2020/12/30 04:46:20;;;;;;;;;;;;;;;19.29;38.59;99834.78;3084864;28;113679;-59
2020/12/30 04:47:54;;;;;;;;;;;;;;;19.27;38.75;99843.50;3085128;28;114562;-59
2020/12/30 04:49:25;;;;;;;;;;;;;;;19.28;38.64;99836.75;3084132;28;114051;-59
2020/12/30 04:50:56;;;;;;;;;;;;;;;19.30;38.68;99844.84;3085122;28;114059;-60
2020/12/30 04:52:28;;;;;;;;;;;;;;;19.35;38.75;99847.47;3089506;28;114408;-59
2020/12/30 04:54:00;;;;;;;;;;;;;;;19.40;38.82;99841.69;3084409;28;113854;-59
2020/12/30 04:55:31;;;;;;;;;;;;;;;19.42;38.69;99840.22;3083734;28;114079;-60
2020/12/30 04:57:03;;;;;;;;;;;;;;;19.47;38.66;99840.09;3089040;28;114399;-59
2020/12/30 04:58:34;;;;;;;;;;;;;;;19.52;38.71;99844.72;3088517;28;114112;-59
2020/12/30 05:00:05;;;;;;;;;;;;;;;19.56;38.78;99844.88;3085966;28;117684;-59
2020/12/30 05:01:42;;;;;;;;;;;;;;;19.58;38.57;99843.38;3087589;28;113968;-60
2020/12/30 05:03:14;;;;;;;;;;;;;;;19.62;38.72;99847.22;3084234;28;114026;-59
2020/12/30 05:04:45;;;;;;;;;;;;;;;19.66;38.62;99852.97;3098661;28;114771;-59
2020/12/30 05:06:17;;;;;;;;;;;;;;;19.70;38.76;99845.56;3095818;28;114512;-60
2020/12/30 05:07:48;;;;;;;;;;;;;;;19.72;38.75;99846.03;3084809;28;114433;-59
2020/12/30 05:09:20;;;;;;;;;;;;;;;19.75;38.59;99851.00;3096453;27;115730;-59
2020/12/30 05:10:52;;;;;;;;;;;;;;;19.79;38.88;99855.59;3085553;28;114555;-60
2020/12/30 05:12:24;;;;;;;;;;;;;;;19.83;38.83;99853.78;3085775;28;115345;-59
2020/12/30 05:13:56;;;;;;;;;;;;;;;19.89;39.09;99851.66;3089813;28;115496;-59
2020/12/30 05:15:27;;;;;;;;;;;;;;;19.92;38.76;99850.97;3084030;28;115123;-60
2020/12/30 05:16:58;;;;;;;;;;;;;;;19.97;38.58;99850.81;3085348;28;114378;-60
2020/12/30 05:18:30;;;;;;;;;;;;;;;20.02;38.60;99858.22;3091417;28;114665;-59
2020/12/30 05:20:02;;;;;;;;;;;;;;;20.07;38.46;99866.47;3095302;28;115761;-60
2020/12/30 05:21:33;;;;;;;;;;;;;;;20.11;38.60;99861.84;3087152;28;114319;-60
2020/12/30 05:23:07;;;;;;;;;;;;;;;20.16;38.33;99870.09;3092788;28;114467;-59
2020/12/30 05:24:39;;;;;;;;;;;;;;;20.20;38.17;99862.66;3087706;28;114278;-59
2020/12/30 05:26:11;;;;;;;;;;;;;;;20.24;38.21;99869.25;3090225;28;115138;-60
2020/12/30 05:27:43;;;;;;;;;;;;;;;20.28;38.22;99873.84;3084634;28;114636;-59
2020/12/30 05:29:15;;;;;;;;;;;;;;;20.34;38.00;99874.53;3091333;28;114800;-59
2020/12/30 05:30:48;;;;;;;;;;;;;;;20.38;38.01;99878.31;3096074;28;114888;-59
2020/12/30 05:32:19;;;;;;;;;;;;;;;20.41;38.16;99883.25;3095871;28;114628;-59
2020/12/30 05:33:50;;;;;;;;;;;;;;;20.45;38.05;99873.03;3096276;28;115739;-59
2020/12/30 05:35:22;;;;;;;;;;;;;;;20.49;37.95;99876.81;3088321;28;115349;-59
2020/12/30 05:36:53;;;;;;;;;;;;;;;20.54;37.86;99873.81;3082517;28;114403;-59
2020/12/30 05:38:28;;;;;;;;;;;;;;;20.56;37.70;99879.94;3087656;28;114699;-59
2020/12/30 05:40:00;;;;;;;;;;;;;;;20.59;37.56;99872.81;3087825;28;115838;-59
2020/12/30 05:41:32;;;;;;;;;;;;;;;20.64;37.73;99870.66;3083870;28;115795;-58
2020/12/30 05:43:13;;;;;;;;;;;;;;;20.65;37.56;99877.94;3089059;28;114628;-59
2020/12/30 05:44:45;;;;;;;;;;;;;;;20.70;37.48;99876.91;3089153;28;115000;-58
2020/12/30 05:46:32;;;;;;;;;;;;;;;20.73;37.42;99879.88;3091702;28;115425;-58
2020/12/30 05:48:22;;;;;;;;;;;;;;;20.76;37.28;99882.00;3093078;28;116144;-58
2020/12/30 05:50:38;;;;;;;;;;;;;;;20.80;37.08;99880.16;3096173;28;115510;-59
2020/12/30 05:52:30;;;;;;;;;;;;;;;20.84;37.24;99877.53;3086856;28;114861;-59
2020/12/30 05:54:33;;;;;;;;;;;;;;;20.89;37.33;99882.97;3083618;28;114594;-59
2020/12/30 05:56:16;;;;;;;;;;;;;;;20.91;37.03;99879.78;3087701;28;114329;-59
2020/12/30 05:57:57;;;;;;;;;;;;;;;20.95;37.31;99892.00;3086591;28;115340;-58
2020/12/30 05:59:45;;;;;;;;;;;;;;;20.97;37.16;99887.72;3088562;28;114488;-59
2020/12/30 06:01:24;;;;;;;;;;;;;;;21.00;37.10;99883.38;3091954;28;117947;-59
2020/12/30 06:02:55;;;;;;;;;;;;;;;21.03;36.83;99888.34;3087930;28;114365;-59
2020/12/30 06:04:26;;;;;;;;;;;;;;;21.06;36.80;99887.66;3088929;28;114555;-59
2020/12/30 06:05:58;;;;;;;;;;;;;;;21.08;36.68;99888.97;3093561;28;114157;-59
2020/12/30 06:07:29;;;;;;;;;;;;;;;21.10;36.94;99883.84;3086150;28;114609;-59
2020/12/30 06:09:01;;;;;;;;;;;;;;;21.12;36.57;99884.31;3108336;28;113817;-59
2020/12/30 06:10:42;;;;;;;;;;;;;;;21.15;36.47;99885.66;3095963;28;116009;-59
2020/12/30 06:12:15;;;;;;;;;;;;;;;21.17;36.66;99874.91;3083707;28;113940;-59
2020/12/30 06:13:48;;;;;;;;;;;;;;;21.20;36.58;99882.66;3096630;28;114197;-59
2020/12/30 06:15:24;;;;;;;;;;;;;;;21.22;36.67;99880.31;3087021;28;115143;-59
2020/12/30 06:16:59;;;;;;;;;;;;;;;21.24;36.44;99878.00;3083947;28;115143;-60
2020/12/30 06:18:36;;;;;;;;;;;;;;;21.27;36.41;99883.78;3092844;28;114415;-60
2020/12/30 06:20:09;;;;;;;;;;;;;;;21.29;36.63;99875.84;3094162;28;114473;-60
2020/12/30 06:21:51;;;;;;;;;;;;;;;21.32;36.36;99885.56;3095810;28;115294;-60
2020/12/30 06:23:22;;;;;;;;;;;;;;;21.34;36.30;99894.50;3081833;28;115158;-60
2020/12/30 06:24:55;;;;;;;;;;;;;;;21.37;36.24;99891.00;3084087;28;114165;-59
2020/12/30 06:26:29;;;;;;;;;;;;;;;21.39;36.40;99891.47;3096097;28;115940;-60
2020/12/30 06:28:33;;;;;;;;;;;;;;;21.42;36.41;99896.41;3088525;28;115291;-59
2020/12/30 06:30:04;;;;;;;;;;;;;;;21.44;36.15;99888.44;3078085;28;114263;-59
2020/12/30 06:31:46;;;;;;;;;;;;;;;21.47;36.36;99889.78;3083751;28;115172;-59
2020/12/30 06:33:21;;;;;;;;;;;;;;;21.49;36.32;99896.69;3083362;28;114155;-59
2020/12/30 06:34:52;;;;;;;;;;;;;;;21.51;36.21;99896.34;3095418;28;114947;-63
2020/12/30 06:36:24;;;;;;;;;;;;;;;21.51;36.16;99900.00;3087684;28;114496;-59
2020/12/30 06:37:56;;;;;;;;;;;;;;;21.53;36.25;99897.66;3083147;28;114431;-59
2020/12/30 06:39:27;;;;;;;;;;;;;;;21.55;36.21;99898.16;3089849;28;114494;-59
2020/12/30 06:40:59;;;;;;;;;;;;;;;21.59;36.18;99907.53;3095579;28;114824;-59
2020/12/30 06:42:31;;;;;;;;;;;;;;;21.62;36.76;99908.88;3096156;28;115291;-59
2020/12/30 06:44:13;;;;;;;;;;;;;;;21.65;36.36;99908.16;3095956;28;115857;-59
2020/12/30 06:46:02;;;;;;;;;;;;;;;21.67;35.97;99912.28;3092949;28;116977;-59
2020/12/30 06:47:52;;;;;;;;;;;;;;;21.69;36.26;99918.41;3094940;28;117405;-59
2020/12/30 06:49:24;;;;;;;;;;;;;;;21.71;36.29;99927.28;3092109;28;116054;-59
2020/12/30 06:51:14;;;;;;;;;;;;;;;21.73;35.82;99924.16;3094208;28;114527;-60
2020/12/30 06:52:45;;;;;;;;;;;;;;;21.76;36.41;99923.47;3087643;28;115843;-62
2020/12/30 06:54:17;;;;;;;;;;;;;;;21.78;35.96;99931.56;3088743;28;116727;-60
2020/12/30 06:55:49;;;;;;;;;;;;;;;21.79;36.04;99916.34;3089712;28;114991;-60
2020/12/30 06:57:50;;;;;;;;;;;;;;;21.80;35.85;99916.00;3087156;28;114643;-60
2020/12/30 06:59:28;;;;;;;;;;;;;;;21.82;35.82;99919.28;3094619;28;114909;-60
2020/12/30 07:00:59;;;;;;;;;;;;;;;21.84;36.08;99921.75;3101249;28;114005;-59
2020/12/30 07:02:30;;;;;;;;;;;;;;;21.86;36.12;99919.41;3098765;28;114554;-59
2020/12/30 07:04:08;;;;;;;;;;;;;;;21.88;35.91;99928.34;3107337;27;114286;-59
2020/12/30 07:05:39;;;;;;;;;;;;;;;21.88;35.82;99932.00;3104672;27;113929;-59
2020/12/30 07:07:28;;;;;;;;;;;;;;;21.90;36.04;99934.44;3098085;28;114260;-59
2020/12/30 07:09:32;;;;;;;;;;;;;;;21.92;35.72;99938.56;3089336;28;114774;-59
2020/12/30 07:11:32;;;;;;;;;;;;;;;21.96;36.00;99938.72;3104133;28;114141;-59
2020/12/30 07:13:03;;;;;;;;;;;;;;;21.95;36.00;99935.09;3104673;27;114188;-60
2020/12/30 07:14:37;;;;;;;;;;;;;;;21.97;35.82;99944.03;3089713;28;114165;-60
2020/12/30 07:16:18;;;;;;;;;;;;;;;21.99;36.18;99947.31;3095028;28;114201;-60
2020/12/30 07:17:49;;;;;;;;;;;;;;;22.01;35.99;99953.44;3092451;28;113984;-60
2020/12/30 07:19:25;;;;;;;;;;;;;;;22.02;36.02;99957.91;3092999;28;114602;-64
2020/12/30 07:21:10;;;;;;;;;;;;;;;22.03;35.94;99956.69;3088629;28;113966;-60
2020/12/30 07:22:42;;;;;;;;;;;;;;;22.04;36.30;99958.34;3092179;28;114138;-60
2020/12/30 07:24:18;;;;;;;;;;;;;;;22.07;36.07;99963.31;3096515;28;114873;-59
2020/12/30 07:25:50;;;;;;;;;;;;;;;22.08;36.15;99959.31;3095320;28;115416;-60
2020/12/30 07:27:28;;;;;;;;;;;;;;;22.09;36.01;99960.97;3092735;28;115672;-61
2020/12/30 07:28:59;;;;;;;;;;;;;;;22.11;36.40;99960.63;3092593;28;116008;-61
2020/12/30 07:30:31;;;;;;;;;;;;;;;22.13;36.42;99961.09;3093267;28;116826;-59
2020/12/30 07:32:03;;;;;;;;;;;;;;;22.14;36.43;99966.38;3093616;28;114205;-58
2020/12/30 07:33:36;;;;;;;;;;;;;;;22.15;36.31;99968.03;3094393;28;116043;-59
2020/12/30 07:35:08;;;;;;;;;;;;;;;22.17;36.39;99967.69;3090973;28;115663;-58
2020/12/30 07:36:39;;;;;;;;;;;;;;;22.19;36.14;99968.19;3091943;28;114487;-59
2020/12/30 07:38:12;;;;;;;;;;;;;;;22.21;36.33;99968.66;3095175;28;117382;-59
2020/12/30 07:39:45;;;;;;;;;;;;;;;22.22;36.07;99964.66;3095133;28;115901;-58
2020/12/30 07:41:20;;;;;;;;;;;;;;;22.25;35.87;99974.44;3095460;28;117005;-60
2020/12/30 07:42:56;;;;;;;;;;;;;;;22.26;35.98;99978.91;3094992;28;114140;-61
2020/12/30 07:44:28;;;;;;;;;;;;;;;22.26;36.11;99971.25;3093584;28;115253;-58
2020/12/30 07:46:19;;;;;;;;;;;;;;;22.27;36.04;99975.72;3094849;28;114437;-60
2020/12/30 07:47:50;;;;;;;;;;;;;;;22.29;36.12;99970.59;3093297;28;115391;-60
2020/12/30 07:49:21;;;;;;;;;;;;;;;22.31;36.18;99978.66;3087484;28;115109;-60
2020/12/30 07:50:53;;;;;;;;;;;;;;;22.33;36.02;99987.59;3089032;28;114398;-60
2020/12/30 07:52:24;;;;;;;;;;;;;;;22.33;35.97;99984.78;3085922;28;114749;-60
2020/12/30 07:53:59;;;;;;;;;;;;;;;22.35;35.67;99985.28;3093143;28;114515;-60
2020/12/30 07:55:34;;;;;;;;;;;;;;;22.37;35.52;99985.72;3095924;28;115846;-60
2020/12/30 07:57:09;;;;;;;;;;;;;;;22.37;35.79;99991.38;3095673;28;115958;-60
2020/12/30 07:58:45;;;;;;;;;;;;;;;22.38;35.61;99993.84;3095420;28;114674;-60
2020/12/30 08:00:17;;;;;;;;;;;;;;;22.39;36.04;99995.50;3090358;28;116625;-60
2020/12/30 08:01:52;;;;;;;;;;;;;;;22.41;35.69;99990.34;3097189;28;114976;-60